Time;durP1;ratioP1;P1;durP2;ratioP2;P2;SDS_P1;SDS_P2;PMS_P1;PMS_P2;Temp;Humidity;BMP_temperature;BMP_pressure;BME280_temperature;BME280_humidity;BME280_pressure;Samples;Min_cycle;Max_cycle;Signal;HPM_P1;HPM_P2
2023/07/08 00:01:45;;;;;;;3.93;3.03;;;;;;;;;;5036528;28;20232;-65
2023/07/08 00:04:11;;;;;;;4.57;3.30;;;;;;;;;;5054558;28;20183;-65
2023/07/08 00:06:37;;;;;;;9.13;3.30;;;;;;;;;;5053379;28;20267;-66
2023/07/08 00:09:03;;;;;;;5.60;3.00;;;;;;;;;;5036289;28;20552;-66
2023/07/08 00:11:29;;;;;;;7.10;3.50;;;;;;;;;;5054102;28;20232;-66
2023/07/08 00:13:55;;;;;;;5.47;3.50;;;;;;;;;;5054144;28;20175;-66
2023/07/08 00:16:21;;;;;;;6.00;3.20;;;;;;;;;;5054273;28;20525;-66
2023/07/08 00:18:48;;;;;;;3.93;3.30;;;;;;;;;;5053823;28;20225;-65
2023/07/08 00:21:15;;;;;;;4.77;3.50;;;;;;;;;;5054276;28;20182;-66
2023/07/08 00:23:45;;;;;;;3.83;3.10;;;;;;;;;;5053979;28;20182;-66
2023/07/08 00:26:15;;;;;;;4.43;3.37;;;;;;;;;;5036042;28;20805;-66
2023/07/08 00:28:41;;;;;;;7.97;3.67;;;;;;;;;;5054235;28;20190;-66
2023/07/08 00:31:09;;;;;;;8.90;3.87;;;;;;;;;;5053811;28;20532;-66
2023/07/08 00:33:35;;;;;;;5.27;3.57;;;;;;;;;;5053774;28;20684;-66
2023/07/08 00:36:01;;;;;;;3.60;3.30;;;;;;;;;;5053961;28;20263;-66
2023/07/08 00:38:28;;;;;;;4.40;3.60;;;;;;;;;;5053834;28;20216;-66
2023/07/08 00:41:07;;;;;;;4.83;3.50;;;;;;;;;;5035666;28;20190;-66
2023/07/08 00:43:37;;;;;;;6.87;3.27;;;;;;;;;;5053887;28;20199;-66
2023/07/08 00:46:17;;;;;;;5.30;3.57;;;;;;;;;;5053760;28;20206;-66
2023/07/08 00:48:44;;;;;;;9.30;3.27;;;;;;;;;;5053499;28;20663;-66
2023/07/08 00:51:12;;;;;;;3.47;2.90;;;;;;;;;;5035634;28;20533;-66
2023/07/08 00:53:38;;;;;;;7.20;3.77;;;;;;;;;;5053689;28;20244;-66
2023/07/08 00:56:04;;;;;;;6.13;3.57;;;;;;;;;;5035404;28;20190;-66
2023/07/08 00:58:34;;;;;;;6.47;3.70;;;;;;;;;;5053277;28;20657;-66
2023/07/08 01:01:01;;;;;;;4.70;3.43;;;;;;;;;;5053614;28;20228;-66
2023/07/08 01:03:28;;;;;;;3.50;3.20;;;;;;;;;;5053212;28;20179;-66
2023/07/08 01:05:56;;;;;;;6.10;3.30;;;;;;;;;;5035335;28;20628;-66
2023/07/08 01:08:28;;;;;;;7.47;3.53;;;;;;;;;;5053509;28;20568;-66
2023/07/08 01:10:58;;;;;;;3.70;3.40;;;;;;;;;;5053429;28;20194;-66
2023/07/08 01:13:24;;;;;;;5.43;3.27;;;;;;;;;;5035234;28;20182;-66
2023/07/08 01:15:50;;;;;;;9.03;3.53;;;;;;;;;;5053052;28;20229;-66
2023/07/08 01:18:20;;;;;;;4.53;3.60;;;;;;;;;;5034965;28;20240;-66
2023/07/08 01:20:47;;;;;;;3.27;2.97;;;;;;;;;;5053243;28;20223;-66
2023/07/08 01:23:13;;;;;;;4.30;3.50;;;;;;;;;;5052885;28;20713;-67
2023/07/08 01:25:42;;;;;;;7.07;3.50;;;;;;;;;;5053022;28;20202;-66
2023/07/08 01:28:08;;;;;;;5.93;3.57;;;;;;;;;;5053084;28;20661;-66
2023/07/08 01:30:34;;;;;;;5.47;3.60;;;;;;;;;;5052800;28;20220;-66
2023/07/08 01:33:03;;;;;;;6.93;3.60;;;;;;;;;;5034918;28;20633;-66
2023/07/08 01:35:29;;;;;;;4.93;3.60;;;;;;;;;;5035015;28;20178;-66
2023/07/08 01:38:04;;;;;;;4.10;3.43;;;;;;;;;;5052747;28;20202;-66
2023/07/08 01:40:30;;;;;;;3.50;2.97;;;;;;;;;;5053746;28;20508;-66
2023/07/08 01:42:56;;;;;;;4.30;3.70;;;;;;;;;;5053059;28;20236;-65
2023/07/08 01:45:23;;;;;;;5.13;3.30;;;;;;;;;;5034954;28;20202;-66
2023/07/08 01:47:52;;;;;;;5.73;3.47;;;;;;;;;;5053184;28;20229;-65
2023/07/08 01:50:19;;;;;;;5.73;3.50;;;;;;;;;;5053197;28;20636;-66
2023/07/08 01:52:45;;;;;;;5.00;3.33;;;;;;;;;;5052853;28;20170;-65
2023/07/08 01:55:10;;;;;;;6.47;3.00;;;;;;;;;;5035096;28;20263;-66
2023/07/08 01:57:36;;;;;;;5.40;3.90;;;;;;;;;;5053283;28;20198;-66
2023/07/08 02:00:02;;;;;;;6.40;3.47;;;;;;;;;;5034946;28;20556;-66
2023/07/08 02:02:28;;;;;;;5.47;3.20;;;;;;;;;;5052853;28;20628;-66
2023/07/08 02:04:54;;;;;;;5.27;3.60;;;;;;;;;;5053040;28;20223;-66
2023/07/08 02:07:20;;;;;;;5.03;3.57;;;;;;;;;;5052577;28;20272;-66
2023/07/08 02:09:46;;;;;;;8.30;3.70;;;;;;;;;;5052579;28;20178;-65
2023/07/08 02:12:12;;;;;;;7.27;3.40;;;;;;;;;;5052834;28;20179;-66
2023/07/08 02:14:38;;;;;;;3.77;3.23;;;;;;;;;;5034882;28;20178;-66
2023/07/08 02:17:05;;;;;;;4.40;3.63;;;;;;;;;;5052685;28;20182;-66
2023/07/08 02:19:31;;;;;;;6.87;3.27;;;;;;;;;;5034589;28;20233;-66
2023/07/08 02:21:57;;;;;;;4.93;3.70;;;;;;;;;;5052586;28;20548;-66
2023/07/08 02:24:23;;;;;;;5.47;3.60;;;;;;;;;;5034724;28;20190;-66
2023/07/08 02:26:49;;;;;;;3.47;3.17;;;;;;;;;;5052315;28;20195;-65
2023/07/08 02:29:15;;;;;;;8.50;3.30;;;;;;;;;;5035260;28;20206;-66
2023/07/08 02:31:41;;;;;;;4.63;3.30;;;;;;;;;;5056682;28;20175;-65
2023/07/08 02:34:07;;;;;;;4.27;3.40;;;;;;;;;;5038299;28;20290;-66
2023/07/08 02:36:34;;;;;;;4.37;3.30;;;;;;;;;;5056288;28;20186;-66
2023/07/08 02:39:00;;;;;;;5.73;3.43;;;;;;;;;;5057944;28;20195;-66
2023/07/08 02:41:26;;;;;;;5.80;3.47;;;;;;;;;;5056446;28;20194;-65
2023/07/08 02:43:52;;;;;;;4.07;3.27;;;;;;;;;;5038201;28;20268;-65
2023/07/08 02:46:18;;;;;;;7.23;3.10;;;;;;;;;;5056026;28;20241;-68
2023/07/08 02:48:44;;;;;;;6.73;3.30;;;;;;;;;;5056010;28;20198;-66
2023/07/08 02:51:10;;;;;;;3.63;3.27;;;;;;;;;;5056038;28;20175;-66
2023/07/08 02:53:36;;;;;;;8.27;3.83;;;;;;;;;;5038574;28;20188;-67
2023/07/08 02:56:02;;;;;;;5.27;3.70;;;;;;;;;;5038008;28;20269;-65
2023/07/08 02:58:29;;;;;;;6.60;3.77;;;;;;;;;;5037708;28;20248;-65
2023/07/08 03:00:56;;;;;;;4.90;3.53;;;;;;;;;;5037817;28;20571;-65
2023/07/08 03:03:22;;;;;;;5.37;3.50;;;;;;;;;;5037589;28;20190;-66
2023/07/08 03:06:02;;;;;;;4.93;3.90;;;;;;;;;;5037446;28;20213;-66
2023/07/08 03:08:28;;;;;;;4.37;3.50;;;;;;;;;;5055197;28;20209;-65
2023/07/08 03:10:56;;;;;;;5.57;3.43;;;;;;;;;;5037432;28;20221;-66
2023/07/08 03:13:23;;;;;;;4.67;3.70;;;;;;;;;;5055476;28;20270;-65
2023/07/08 03:15:49;;;;;;;4.30;3.70;;;;;;;;;;5037422;28;20198;-65
2023/07/08 03:18:15;;;;;;;5.13;3.63;;;;;;;;;;5055314;28;20218;-66
2023/07/08 03:20:44;;;;;;;3.90;3.50;;;;;;;;;;5070436;22;20367;-65
2023/07/08 03:23:11;;;;;;;4.63;3.37;;;;;;;;;;5055431;28;20257;-65
2023/07/08 03:25:37;;;;;;;4.63;3.23;;;;;;;;;;5055345;28;20202;-65
2023/07/08 03:28:05;;;;;;;4.20;3.80;;;;;;;;;;5057987;28;20190;-65
2023/07/08 03:30:32;;;;;;;3.90;3.13;;;;;;;;;;5058775;28;20191;-64
2023/07/08 03:32:58;;;;;;;5.13;3.70;;;;;;;;;;5059048;28;20166;-64
2023/07/08 03:35:24;;;;;;;5.27;3.57;;;;;;;;;;5040944;28;20248;-65
2023/07/08 03:37:50;;;;;;;4.03;3.63;;;;;;;;;;5058063;28;20566;-65
2023/07/08 03:40:16;;;;;;;8.30;3.73;;;;;;;;;;5056237;28;20198;-65
2023/07/08 03:42:44;;;;;;;5.97;3.53;;;;;;;;;;5039914;28;20740;-65
2023/07/08 03:45:10;;;;;;;5.50;3.80;;;;;;;;;;5055445;28;20563;-65
2023/07/08 03:47:36;;;;;;;4.93;3.40;;;;;;;;;;5055153;28;20174;-65
2023/07/08 03:50:02;;;;;;;10.20;3.50;;;;;;;;;;5037999;28;20198;-65
2023/07/08 03:52:28;;;;;;;7.47;3.67;;;;;;;;;;5037249;28;20178;-65
2023/07/08 03:54:56;;;;;;;5.57;3.40;;;;;;;;;;5036797;28;20274;-66
2023/07/08 03:57:22;;;;;;;9.00;3.87;;;;;;;;;;5054992;28;20202;-65
2023/07/08 03:59:48;;;;;;;9.03;3.77;;;;;;;;;;5054933;28;20201;-65
2023/07/08 04:02:14;;;;;;;3.23;2.90;;;;;;;;;;5056164;28;20210;-66
2023/07/08 04:04:40;;;;;;;4.20;3.57;;;;;;;;;;5054840;28;20186;-65
2023/07/08 04:07:06;;;;;;;4.30;3.53;;;;;;;;;;5054419;28;20291;-65
2023/07/08 04:09:32;;;;;;;5.00;3.13;;;;;;;;;;5036618;28;20199;-65
2023/07/08 04:11:59;;;;;;;6.13;3.63;;;;;;;;;;5054589;28;20312;-65
2023/07/08 04:14:25;;;;;;;5.40;3.83;;;;;;;;;;5054537;28;20197;-65
2023/07/08 04:16:53;;;;;;;5.00;3.40;;;;;;;;;;5055701;28;20253;-65
2023/07/08 04:19:19;;;;;;;4.77;3.33;;;;;;;;;;5036190;28;20618;-65
2023/07/08 04:21:46;;;;;;;4.67;3.37;;;;;;;;;;5036389;28;20225;-65
2023/07/08 04:24:13;;;;;;;3.70;3.20;;;;;;;;;;5054621;28;20178;-64
2023/07/08 04:26:39;;;;;;;7.47;3.30;;;;;;;;;;5054372;28;20202;-65
2023/07/08 04:29:07;;;;;;;5.60;4.00;;;;;;;;;;5054446;28;20636;-65
2023/07/08 04:31:33;;;;;;;4.63;3.70;;;;;;;;;;5054306;28;20177;-65
2023/07/08 04:33:59;;;;;;;4.33;3.60;;;;;;;;;;5036504;28;20634;-65
2023/07/08 04:36:26;;;;;;;5.10;3.77;;;;;;;;;;5054271;28;20224;-65
2023/07/08 04:38:52;;;;;;;9.00;3.80;;;;;;;;;;5054494;28;20179;-66
2023/07/08 04:41:18;;;;;;;7.53;3.57;;;;;;;;;;5036003;28;20212;-65
2023/07/08 04:43:44;;;;;;;5.70;3.57;;;;;;;;;;5054198;28;20663;-65
2023/07/08 04:46:18;;;;;;;7.83;3.77;;;;;;;;;;5053921;28;20580;-65
2023/07/08 04:48:45;;;;;;;3.93;3.53;;;;;;;;;;5054374;28;20169;-65
2023/07/08 04:51:11;;;;;;;5.63;3.50;;;;;;;;;;5054082;28;20198;-65
2023/07/08 04:53:37;;;;;;;5.57;3.77;;;;;;;;;;5036059;28;20178;-65
2023/07/08 04:56:03;;;;;;;4.80;3.20;;;;;;;;;;5054170;28;20182;-65
2023/07/08 04:58:29;;;;;;;4.90;3.50;;;;;;;;;;5053712;28;20189;-65
2023/07/08 05:00:55;;;;;;;6.60;3.70;;;;;;;;;;5053620;28;20284;-65
2023/07/08 05:03:21;;;;;;;5.70;3.30;;;;;;;;;;5053466;28;20183;-65
2023/07/08 05:05:47;;;;;;;6.83;3.90;;;;;;;;;;5053459;28;20206;-65
2023/07/08 05:08:13;;;;;;;4.33;3.60;;;;;;;;;;5053710;28;20575;-65
2023/07/08 05:10:39;;;;;;;9.30;3.97;;;;;;;;;;5053590;28;20609;-65
2023/07/08 05:13:05;;;;;;;7.83;3.93;;;;;;;;;;5053684;28;20177;-65
2023/07/08 05:15:31;;;;;;;4.37;3.70;;;;;;;;;;5035567;28;20190;-65
2023/07/08 05:17:57;;;;;;;3.97;3.53;;;;;;;;;;5053655;28;20640;-65
2023/07/08 05:20:23;;;;;;;6.00;3.10;;;;;;;;;;5053529;28;20700;-65
2023/07/08 05:22:49;;;;;;;7.63;3.67;;;;;;;;;;5053355;28;20185;-65
2023/07/08 05:25:16;;;;;;;9.60;3.67;;;;;;;;;;5035417;28;20183;-65
2023/07/08 05:27:42;;;;;;;6.10;3.83;;;;;;;;;;5053580;28;20253;-65
2023/07/08 05:30:12;;;;;;;5.40;3.87;;;;;;;;;;5053209;28;20682;-65
2023/07/08 05:32:38;;;;;;;7.17;3.83;;;;;;;;;;5038529;28;20180;-65
2023/07/08 05:35:07;;;;;;;5.97;3.93;;;;;;;;;;5055152;28;20558;-65
2023/07/08 05:37:33;;;;;;;6.07;3.60;;;;;;;;;;5036355;28;20178;-65
2023/07/08 05:40:02;;;;;;;7.17;4.07;;;;;;;;;;5053639;28;20281;-65
2023/07/08 05:42:28;;;;;;;5.43;4.30;;;;;;;;;;5035886;28;20269;-65
2023/07/08 05:44:54;;;;;;;9.40;3.87;;;;;;;;;;5053590;28;20209;-65
2023/07/08 05:47:21;;;;;;;6.47;4.33;;;;;;;;;;5053288;28;20206;-65
2023/07/08 05:49:47;;;;;;;6.60;3.93;;;;;;;;;;5053178;28;20218;-65
2023/07/08 05:52:13;;;;;;;7.83;3.90;;;;;;;;;;5053157;28;20174;-65
2023/07/08 05:54:39;;;;;;;10.83;4.20;;;;;;;;;;5052970;28;20201;-66
2023/07/08 05:57:07;;;;;;;4.90;3.67;;;;;;;;;;5053065;28;20186;-65
2023/07/08 05:59:33;;;;;;;8.90;4.10;;;;;;;;;;5034940;28;20198;-65
2023/07/08 06:01:59;;;;;;;6.83;4.07;;;;;;;;;;5053033;28;20178;-65
2023/07/08 06:04:25;;;;;;;4.63;4.13;;;;;;;;;;5054677;28;20528;-62
2023/07/08 06:06:51;;;;;;;5.70;3.80;;;;;;;;;;5057272;28;20747;-66
2023/07/08 06:09:16;;;;;;;5.00;4.10;;;;;;;;;;5056624;28;20181;-63
2023/07/08 06:11:42;;;;;;;6.63;4.20;;;;;;;;;;5056827;28;20205;-64
2023/07/08 06:14:08;;;;;;;6.40;4.27;;;;;;;;;;5057137;28;20187;-65
2023/07/08 06:16:35;;;;;;;5.23;4.30;;;;;;;;;;5056729;28;20179;-64
2023/07/08 06:19:01;;;;;;;12.03;4.10;;;;;;;;;;5038875;28;20273;-64
2023/07/08 06:21:26;;;;;;;9.47;4.20;;;;;;;;;;5057043;28;20234;-64
2023/07/08 06:23:53;;;;;;;8.70;4.57;;;;;;;;;;5056455;28;20205;-64
2023/07/08 06:26:19;;;;;;;8.47;4.60;;;;;;;;;;5056950;28;20238;-64
2023/07/08 06:28:45;;;;;;;10.20;4.43;;;;;;;;;;5038463;28;20273;-64
2023/07/08 06:31:11;;;;;;;7.23;4.07;;;;;;;;;;5056240;28;20251;-64
2023/07/08 06:33:37;;;;;;;9.33;4.47;;;;;;;;;;5056396;28;20178;-66
2023/07/08 06:36:03;;;;;;;8.07;4.43;;;;;;;;;;5056214;28;20636;-64
2023/07/08 06:38:29;;;;;;;9.37;4.70;;;;;;;;;;5056311;28;20179;-64
2023/07/08 06:40:55;;;;;;;8.50;4.07;;;;;;;;;;5056470;28;20285;-64
2023/07/08 06:43:21;;;;;;;11.10;4.90;;;;;;;;;;5056279;28;20201;-64
2023/07/08 06:45:47;;;;;;;12.17;4.80;;;;;;;;;;5056190;28;20328;-64
2023/07/08 06:48:12;;;;;;;9.67;4.70;;;;;;;;;;5056375;28;20193;-63
2023/07/08 06:50:38;;;;;;;7.63;4.33;;;;;;;;;;5056636;28;20206;-64
2023/07/08 06:53:04;;;;;;;5.70;4.70;;;;;;;;;;5056102;28;20177;-64
2023/07/08 06:55:30;;;;;;;7.07;4.47;;;;;;;;;;5056212;28;20265;-64
2023/07/08 06:57:56;;;;;;;7.00;4.37;;;;;;;;;;5056479;28;20552;-64
2023/07/08 07:00:22;;;;;;;5.53;4.23;;;;;;;;;;5055871;28;20198;-64
2023/07/08 07:02:48;;;;;;;7.03;4.27;;;;;;;;;;5056392;28;20616;-64
2023/07/08 07:05:14;;;;;;;14.10;4.57;;;;;;;;;;5055838;28;20605;-64
2023/07/08 07:07:40;;;;;;;6.77;4.60;;;;;;;;;;5037829;28;20563;-64
2023/07/08 07:10:07;;;;;;;5.77;4.30;;;;;;;;;;5037812;28;20202;-64
2023/07/08 07:12:34;;;;;;;7.20;4.60;;;;;;;;;;5055679;28;20170;-64
2023/07/08 07:15:00;;;;;;;6.50;4.73;;;;;;;;;;5055586;28;20178;-64
2023/07/08 07:17:26;;;;;;;7.30;4.50;;;;;;;;;;5055860;28;20537;-64
2023/07/08 07:19:52;;;;;;;9.53;5.10;;;;;;;;;;5055322;28;20715;-64
2023/07/08 07:22:18;;;;;;;8.90;4.77;;;;;;;;;;5036376;28;20401;-64
2023/07/08 07:24:44;;;;;;;9.43;5.40;;;;;;;;;;5054228;28;20480;-64
2023/07/08 07:27:11;;;;;;;7.00;4.70;;;;;;;;;;5055795;28;20464;-64
2023/07/08 07:29:44;;;;;;;8.53;4.77;;;;;;;;;;5037355;28;20203;-64
2023/07/08 07:32:11;;;;;;;8.00;4.77;;;;;;;;;;5055188;28;20176;-64
2023/07/08 07:34:38;;;;;;;6.00;4.73;;;;;;;;;;5055189;28;20185;-64
2023/07/08 07:37:04;;;;;;;8.17;5.13;;;;;;;;;;5055046;28;20175;-64
2023/07/08 07:39:30;;;;;;;5.57;4.90;;;;;;;;;;5055110;28;20253;-64
2023/07/08 07:41:56;;;;;;;8.27;5.00;;;;;;;;;;5037327;28;20181;-64
2023/07/08 07:44:22;;;;;;;13.53;6.50;;;;;;;;;;5054159;28;20393;-65
2023/07/08 07:46:47;;;;;;;15.97;10.67;;;;;;;;;;5054082;28;20499;-66
2023/07/08 07:49:14;;;;;;;10.80;8.00;;;;;;;;;;5053957;28;20377;-66
2023/07/08 07:51:40;;;;;;;14.93;7.53;;;;;;;;;;5036074;28;20779;-67
2023/07/08 07:54:05;;;;;;;9.13;7.53;;;;;;;;;;5053987;28;20859;-65
2023/07/08 07:56:32;;;;;;;8.73;7.50;;;;;;;;;;5035874;28;20798;-65
2023/07/08 07:58:58;;;;;;;10.88;7.30;;;;;;;;;;5054183;28;20868;-66
2023/07/08 08:01:24;;;;;;;12.00;7.70;;;;;;;;;;5053610;28;20396;-66
2023/07/08 08:03:51;;;;;;;12.10;8.43;;;;;;;;;;5035830;28;20390;-67
2023/07/08 08:06:17;;;;;;;8.45;7.40;;;;;;;;;;5036498;28;20409;-66
2023/07/08 08:08:43;;;;;;;10.18;7.38;;;;;;;;;;5035892;28;20863;-66
2023/07/08 08:11:09;;;;;;;10.18;7.47;;;;;;;;;;5053779;28;20373;-66
2023/07/08 08:13:35;;;;;;;9.07;8.15;;;;;;;;;;5035417;28;20385;-66
2023/07/08 08:16:03;;;;;;;11.68;8.05;;;;;;;;;;5053328;28;20928;-67
2023/07/08 08:18:29;;;;;;;11.00;7.87;;;;;;;;;;5053213;28;20413;-66
2023/07/08 08:20:55;;;;;;;9.13;7.18;;;;;;;;;;5036263;28;20499;-66
2023/07/08 08:23:20;;;;;;;8.10;7.30;;;;;;;;;;5054284;28;20186;-66
2023/07/08 08:25:46;;;;;;;8.77;7.87;;;;;;;;;;5054047;28;20261;-66
2023/07/08 08:28:12;;;;;;;7.87;7.07;;;;;;;;;;5035751;28;20181;-66
2023/07/08 08:30:38;;;;;;;13.07;8.40;;;;;;;;;;5054089;28;20202;-66
2023/07/08 08:33:05;;;;;;;9.73;7.53;;;;;;;;;;5054006;28;20210;-66
2023/07/08 08:35:31;;;;;;;9.77;8.13;;;;;;;;;;5052767;28;20782;-66
2023/07/08 08:37:57;;;;;;;10.82;8.02;;;;;;;;;;5052835;28;20808;-65
2023/07/08 08:40:22;;;;;;;9.87;8.03;;;;;;;;;;5034838;28;20385;-66
2023/07/08 08:42:53;;;;;;;9.67;8.30;;;;;;;;;;5052762;28;20388;-66
2023/07/08 08:45:20;;;;;;;12.55;8.15;;;;;;;;;;5034927;28;20417;-65
2023/07/08 08:47:49;;;;;;;10.05;8.38;;;;;;;;;;5052407;28;20439;-65
2023/07/08 08:50:34;;;;;;;13.35;8.50;;;;;;;;;;5052764;28;20785;-66
2023/07/08 08:53:02;;;;;;;10.13;8.70;;;;;;;;;;5035062;28;20427;-66
2023/07/08 08:55:28;;;;;;;11.73;8.35;;;;;;;;;;5052768;28;20380;-65
2023/07/08 08:58:12;;;;;;;11.55;8.25;;;;;;;;;;5035017;28;20381;-66
2023/07/08 09:00:54;;;;;;;12.68;8.20;;;;;;;;;;5052461;28;20450;-66
2023/07/08 09:03:28;;;;;;;9.73;8.02;;;;;;;;;;5034766;28;20440;-66
2023/07/08 09:05:58;;;;;;;12.05;10.25;;;;;;;;;;5052470;28;20488;-66
2023/07/08 09:08:28;;;;;;;12.45;10.90;;;;;;;;;;5052594;28;20366;-66
2023/07/08 09:11:12;;;;;;;14.85;11.27;;;;;;;;;;5052372;28;20756;-65
2023/07/08 09:13:38;;;;;;;12.43;9.63;;;;;;;;;;5052923;28;20758;-66
2023/07/08 09:16:26;;;;;;;9.88;8.00;;;;;;;;;;5052393;28;20378;-66
2023/07/08 09:18:52;;;;;;;15.00;8.52;;;;;;;;;;5052484;28;20426;-66
2023/07/08 09:21:26;;;;;;;10.63;8.43;;;;;;;;;;5051819;28;20409;-66
2023/07/08 09:23:53;;;;;;;10.98;8.07;;;;;;;;;;5052088;28;20377;-65
2023/07/08 09:26:20;;;;;;;10.20;7.78;;;;;;;;;;5034090;28;20915;-66
2023/07/08 09:28:46;;;;;;;9.77;7.63;;;;;;;;;;5034085;28;20374;-66
2023/07/08 09:31:31;;;;;;;11.57;7.78;;;;;;;;;;5033984;28;20378;-66
2023/07/08 09:34:07;;;;;;;8.73;7.78;;;;;;;;;;5052317;28;20377;-65
2023/07/08 09:36:33;;;;;;;11.47;7.40;;;;;;;;;;5034541;28;20377;-66
2023/07/08 09:38:59;;;;;;;9.18;7.18;;;;;;;;;;5054702;28;20508;-67
2023/07/08 09:41:33;;;;;;;8.77;7.43;;;;;;;;;;5056650;28;20388;-66
2023/07/08 09:44:06;;;;;;;8.17;7.00;;;;;;;;;;5053543;22;20184;-67
2023/07/08 09:46:37;;;;;;;7.23;6.40;;;;;;;;;;5039141;28;20308;-67
2023/07/08 09:49:23;;;;;;;7.53;6.47;;;;;;;;;;5057093;28;20181;-67
2023/07/08 09:51:50;;;;;;;8.10;6.33;;;;;;;;;;5028899;28;20193;-67
2023/07/08 09:54:16;;;;;;;9.83;6.27;;;;;;;;;;5057306;28;20224;-67
2023/07/08 09:56:44;;;;;;;7.73;6.30;;;;;;;;;;5057429;28;20182;-67
2023/07/08 09:59:14;;;;;;;9.80;6.03;;;;;;;;;;5057340;28;20174;-67
2023/07/08 10:01:40;;;;;;;7.20;6.27;;;;;;;;;;5057755;28;20228;-67
2023/07/08 10:04:06;;;;;;;8.30;6.70;;;;;;;;;;5038957;28;20201;-67
2023/07/08 10:06:34;;;;;;;10.27;6.55;;;;;;;;;;5056690;28;20208;-67
2023/07/08 10:09:04;;;;;;;7.30;5.93;;;;;;;;;;5056869;28;20178;-67
2023/07/08 10:11:36;;;;;;;10.20;6.80;;;;;;;;;;5056813;28;20178;-67
2023/07/08 10:14:04;;;;;;;8.30;5.83;;;;;;;;;;5038944;28;20222;-67
2023/07/08 10:16:32;;;;;;;11.70;6.57;;;;;;;;;;5039076;28;20269;-68
2023/07/08 10:18:58;;;;;;;8.50;6.80;;;;;;;;;;5056633;28;20258;-67
2023/07/08 10:21:40;;;;;;;7.33;6.07;;;;;;;;;;5056495;28;20178;-67
2023/07/08 10:24:15;;;;;;;6.97;5.27;;;;;;;;;;5038588;28;20687;-67
2023/07/08 10:26:41;;;;;;;7.77;6.40;;;;;;;;;;5038478;28;20683;-68
2023/07/08 10:29:29;;;;;;;7.33;6.03;;;;;;;;;;5056683;28;20197;-67
2023/07/08 10:32:11;;;;;;;9.68;6.43;;;;;;;;;;5057093;28;20167;-67
2023/07/08 10:34:50;;;;;;;7.38;5.90;;;;;;;;;;5056812;28;20209;-67
2023/07/08 10:37:34;;;;;;;7.63;5.67;;;;;;;;;;5057016;28;20206;-67
2023/07/08 10:40:07;;;;;;;10.10;6.85;;;;;;;;;;5056670;28;20228;-67
2023/07/08 10:42:41;;;;;;;7.65;6.57;;;;;;;;;;5038672;28;20649;-67
2023/07/08 10:45:16;;;;;;;8.75;6.57;;;;;;;;;;5038366;28;20756;-67
2023/07/08 10:47:45;;;;;;;10.02;6.10;;;;;;;;;;5056087;28;20743;-68
2023/07/08 10:50:29;;;;;;;7.88;6.07;;;;;;;;;;5055558;28;20698;-67
2023/07/08 10:52:58;;;;;;;8.98;6.53;;;;;;;;;;5056165;28;20183;-67
2023/07/08 10:55:29;;;;;;;6.95;6.25;;;;;;;;;;5057850;28;20194;-66
2023/07/08 10:58:13;;;;;;;7.28;6.57;;;;;;;;;;5057363;28;20174;-67
2023/07/08 11:00:51;;;;;;;8.45;7.03;;;;;;;;;;5056318;28;20176;-67
2023/07/08 11:03:21;;;;;;;8.65;6.10;;;;;;;;;;5056014;28;20220;-67
2023/07/08 11:05:51;;;;;;;9.07;6.38;;;;;;;;;;5038084;28;20298;-67
2023/07/08 11:08:20;;;;;;;8.43;6.10;;;;;;;;;;5038703;28;20270;-67
2023/07/08 11:11:15;;;;;;;8.27;6.00;;;;;;;;;;5037831;28;20182;-67
2023/07/08 11:13:46;;;;;;;11.13;6.20;;;;;;;;;;5021290;28;20237;-67
2023/07/08 11:16:16;;;;;;;6.47;5.78;;;;;;;;;;5038443;28;20219;-66
2023/07/08 11:18:53;;;;;;;10.48;7.63;;;;;;;;;;5056255;28;20178;-67
2023/07/08 11:21:22;;;;;;;10.55;6.40;;;;;;;;;;5038193;28;20181;-66
2023/07/08 11:23:52;;;;;;;10.32;6.25;;;;;;;;;;5038029;28;20178;-67
2023/07/08 11:26:21;;;;;;;12.95;7.10;;;;;;;;;;5055809;28;20221;-67
2023/07/08 11:28:48;;;;;;;9.10;6.65;;;;;;;;;;5038564;28;20727;-67
2023/07/08 11:31:15;;;;;;;6.25;5.65;;;;;;;;;;5056307;28;20170;-67
2023/07/08 11:33:42;;;;;;;9.45;6.93;;;;;;;;;;5056450;28;20180;-67
2023/07/08 11:36:09;;;;;;;15.75;6.53;;;;;;;;;;5057261;28;20186;-67
2023/07/08 11:38:35;;;;;;;6.43;5.53;;;;;;;;;;5064008;28;20266;-67
2023/07/08 11:41:20;;;;;;;6.95;5.63;;;;;;;;;;5062805;28;20206;-67
2023/07/08 11:43:48;;;;;;;9.02;6.20;;;;;;;;;;5040434;28;20179;-68
2023/07/08 11:46:19;;;;;;;8.32;6.03;;;;;;;;;;5061804;28;20198;-66
2023/07/08 11:48:47;;;;;;;9.68;6.38;;;;;;;;;;5055605;28;20155;-66
2023/07/08 11:51:24;;;;;;;6.45;5.85;;;;;;;;;;5066548;28;20567;-67
2023/07/08 11:53:56;;;;;;;7.13;5.80;;;;;;;;;;5062478;28;20644;-67
2023/07/08 11:56:23;;;;;;;7.15;6.00;;;;;;;;;;5040586;28;20181;-66
2023/07/08 11:58:49;;;;;;;8.10;6.00;;;;;;;;;;5058960;28;20198;-66
2023/07/08 12:01:34;;;;;;;7.80;5.43;;;;;;;;;;5063362;28;20182;-66
2023/07/08 12:04:02;;;;;;;9.38;6.78;;;;;;;;;;5057640;28;20205;-66
2023/07/08 12:06:27;;;;;;;7.78;6.57;;;;;;;;;;5058843;28;20190;-66
2023/07/08 12:08:54;;;;;;;8.88;5.88;;;;;;;;;;5059989;28;20706;-66
2023/07/08 12:11:25;;;;;;;5.57;5.03;;;;;;;;;;5041570;28;20679;-66
2023/07/08 12:13:51;;;;;;;9.35;6.32;;;;;;;;;;5063562;28;20162;-66
2023/07/08 12:16:17;;;;;;;15.73;6.30;;;;;;;;;;5068223;28;20189;-66
2023/07/08 12:18:46;;;;;;;11.18;5.53;;;;;;;;;;5069681;28;20210;-66
2023/07/08 12:21:12;;;;;;;6.43;5.30;;;;;;;;;;5069355;28;20176;-67
2023/07/08 12:23:44;;;;;;;10.30;6.22;;;;;;;;;;5070451;28;20680;-67
2023/07/08 12:26:10;;;;;;;10.05;6.70;;;;;;;;;;5052140;28;20194;-66
2023/07/08 12:28:37;;;;;;;8.82;5.72;;;;;;;;;;5068867;28;20182;-66
2023/07/08 12:31:03;;;;;;;7.70;5.70;;;;;;;;;;5051704;28;20204;-66
2023/07/08 12:33:34;;;;;;;10.15;7.05;;;;;;;;;;5067714;28;20170;-68
2023/07/08 12:36:00;;;;;;;6.85;5.43;;;;;;;;;;5052926;28;20206;-66
2023/07/08 12:38:28;;;;;;;9.20;6.82;;;;;;;;;;5046761;28;20182;-66
2023/07/08 12:40:56;;;;;;;10.73;5.88;;;;;;;;;;5060288;28;20274;-66
2023/07/08 12:43:22;;;;;;;7.13;6.35;;;;;;;;;;5044470;28;20200;-66
2023/07/08 12:45:48;;;;;;;9.13;6.35;;;;;;;;;;5060983;28;20258;-66
2023/07/08 12:48:14;;;;;;;9.25;6.30;;;;;;;;;;5059617;28;20194;-66
2023/07/08 12:50:40;;;;;;;8.13;6.07;;;;;;;;;;5065853;28;20226;-66
2023/07/08 12:53:09;;;;;;;14.95;5.53;;;;;;;;;;5062344;28;20521;-66
2023/07/08 12:55:36;;;;;;;11.02;5.65;;;;;;;;;;5045032;28;20206;-67
2023/07/08 12:58:02;;;;;;;7.70;5.78;;;;;;;;;;5063034;28;20261;-66
2023/07/08 13:00:31;;;;;;;8.55;6.00;;;;;;;;;;5059690;28;20214;-67
2023/07/08 13:02:59;;;;;;;7.68;5.53;;;;;;;;;;5041080;28;20175;-67
2023/07/08 13:05:26;;;;;;;9.10;5.70;;;;;;;;;;5043732;28;20202;-66
2023/07/08 13:07:52;;;;;;;7.38;6.05;;;;;;;;;;5041398;28;20171;-66
2023/07/08 13:10:22;;;;;;;7.47;5.60;;;;;;;;;;5061390;28;20182;-66
2023/07/08 13:12:49;;;;;;;7.22;5.47;;;;;;;;;;5057628;28;20171;-66
2023/07/08 13:15:20;;;;;;;8.57;5.70;;;;;;;;;;5062311;28;20194;-66
2023/07/08 13:17:46;;;;;;;8.43;5.45;;;;;;;;;;5061141;28;20170;-67
2023/07/08 13:20:15;;;;;;;310.83;24.95;;;;;;;;;;5059391;28;20178;-66
2023/07/08 13:22:43;;;;;;;7.03;5.53;;;;;;;;;;5058741;28;20236;-67
2023/07/08 13:25:14;;;;;;;8.35;5.55;;;;;;;;;;5041498;28;20201;-66
2023/07/08 13:27:40;;;;;;;11.52;6.63;;;;;;;;;;5058513;28;20190;-67
2023/07/08 13:30:16;;;;;;;10.32;6.45;;;;;;;;;;5039417;28;20175;-66
2023/07/08 13:32:42;;;;;;;6.53;5.63;;;;;;;;;;5038335;28;20648;-66
2023/07/08 13:35:21;;;;;;;6.28;5.22;;;;;;;;;;5042622;28;20202;-67
2023/07/08 13:37:49;;;;;;;6.93;5.50;;;;;;;;;;5054025;28;20631;-66
2023/07/08 13:40:15;;;;;;;7.70;5.93;;;;;;;;;;5054379;28;20178;-66
2023/07/08 13:42:47;;;;;;;6.93;5.55;;;;;;;;;;5054712;28;20625;-66
2023/07/08 13:45:15;;;;;;;7.82;6.40;;;;;;;;;;5035483;28;20213;-66
2023/07/08 13:47:41;;;;;;;7.95;6.25;;;;;;;;;;5053663;28;20202;-66
2023/07/08 13:50:13;;;;;;;8.25;6.03;;;;;;;;;;5053884;28;20174;-67
2023/07/08 13:52:43;;;;;;;9.55;6.65;;;;;;;;;;5055012;28;20147;-67
2023/07/08 13:55:16;;;;;;;9.07;6.22;;;;;;;;;;5035484;28;20527;-67
2023/07/08 13:57:42;;;;;;;8.05;6.60;;;;;;;;;;5053582;28;20632;-66
2023/07/08 14:00:08;;;;;;;8.70;6.57;;;;;;;;;;5035296;28;20190;-67
2023/07/08 14:02:34;;;;;;;9.25;6.13;;;;;;;;;;5035505;28;20185;-67
2023/07/08 14:05:03;;;;;;;7.40;6.18;;;;;;;;;;5035147;28;20289;-68
2023/07/08 14:07:31;;;;;;;10.40;5.70;;;;;;;;;;5053498;28;20205;-67
2023/07/08 14:09:57;;;;;;;10.00;6.35;;;;;;;;;;5053639;28;20233;-65
2023/07/08 14:12:23;;;;;;;7.68;6.63;;;;;;;;;;5053193;28;20663;-66
2023/07/08 14:14:49;;;;;;;8.52;6.75;;;;;;;;;;5053198;28;20191;-67
2023/07/08 14:17:23;;;;;;;8.50;7.13;;;;;;;;;;5035500;28;20202;-67
2023/07/08 14:19:49;;;;;;;9.82;6.97;;;;;;;;;;5053085;28;20175;-67
2023/07/08 14:22:15;;;;;;;7.90;6.80;;;;;;;;;;5053086;28;20521;-67
2023/07/08 14:24:42;;;;;;;8.38;6.35;;;;;;;;;;5052556;28;20194;-67
2023/07/08 14:27:11;;;;;;;10.70;5.97;;;;;;;;;;5056130;28;20206;-68
2023/07/08 14:29:37;;;;;;;7.93;5.93;;;;;;;;;;5038957;28;20185;-66
2023/07/08 14:32:04;;;;;;;9.23;6.07;;;;;;;;;;5056384;28;20175;-66
2023/07/08 14:34:30;;;;;;;6.72;6.05;;;;;;;;;;5038522;28;20202;-67
2023/07/08 14:36:55;;;;;;;7.88;6.15;;;;;;;;;;5022085;28;20178;-67
2023/07/08 14:39:22;;;;;;;8.93;6.45;;;;;;;;;;5056824;28;20695;-67
2023/07/08 14:41:49;;;;;;;11.23;6.57;;;;;;;;;;5038588;28;20641;-67
2023/07/08 14:44:15;;;;;;;7.18;6.47;;;;;;;;;;5056139;28;20626;-67
2023/07/08 14:46:41;;;;;;;9.20;7.22;;;;;;;;;;5038149;28;20205;-67